createdAt,value
2022-12-07T00:01:51.033Z,61.83
2022-12-07T00:03:58.134Z,57.27
2022-12-07T00:06:03.847Z,58.67
2022-12-07T00:08:07.206Z,69.97
2022-12-07T00:10:10.692Z,53.67
2022-12-07T00:12:14.081Z,48.10
2022-12-07T00:14:18.620Z,54.90
2022-12-07T00:16:23.990Z,58.70
2022-12-07T00:18:27.470Z,56.70
2022-12-07T00:20:31.262Z,64.40
2022-12-07T00:22:35.895Z,47.87
2022-12-07T00:24:39.300Z,45.27
2022-12-07T00:26:44.878Z,59.80
2022-12-07T00:28:48.930Z,55.27
2022-12-07T00:30:53.023Z,58.67
2022-12-07T00:32:56.305Z,54.97
2022-12-07T00:34:59.587Z,59.87
2022-12-07T00:37:02.852Z,68.27
2022-12-07T00:39:07.957Z,59.70
2022-12-07T00:41:14.912Z,41.87
2022-12-07T00:43:18.243Z,64.67
2022-12-07T00:45:21.599Z,63.53
2022-12-07T00:47:25.050Z,61.20
2022-12-07T00:49:28.406Z,71.77
2022-12-07T00:51:31.781Z,56.77
2022-12-07T00:53:41.091Z,64.37
2022-12-07T00:55:46.826Z,59.80
2022-12-07T00:57:50.330Z,57.10
2022-12-07T00:59:56.239Z,59.77
2022-12-07T01:01:59.625Z,71.20
2022-12-07T01:04:03.435Z,61.33
2022-12-07T01:06:07.520Z,62.67
2022-12-07T01:08:11.071Z,63.40
2022-12-07T01:10:15.143Z,69.97
2022-12-07T01:12:19.842Z,66.33
2022-12-07T01:14:23.116Z,67.57
2022-12-07T01:16:29.451Z,66.10
2022-12-07T01:18:35.400Z,70.40
2022-12-07T01:20:39.408Z,60.00
2022-12-07T01:22:43.794Z,66.57
2022-12-07T01:24:47.717Z,71.63
2022-12-07T01:26:51.235Z,68.63
2022-12-07T01:28:56.407Z,62.20
2022-12-07T01:31:01.203Z,55.83
2022-12-07T01:33:04.641Z,56.87
2022-12-07T01:35:08.567Z,64.97
2022-12-07T01:37:11.884Z,56.30
2022-12-07T01:39:15.205Z,59.73
2022-12-07T01:41:19.492Z,40.13
2022-12-07T01:43:24.811Z,68.43
2022-12-07T01:45:41.557Z,60.73
2022-12-07T01:47:48.902Z,73.90
2022-12-07T01:49:52.427Z,67.00
2022-12-07T01:52:02.415Z,69.60
2022-12-07T01:54:05.847Z,64.83
2022-12-07T01:56:11.603Z,59.23
2022-12-07T01:58:15.930Z,55.67
2022-12-07T02:00:20.654Z,47.07
2022-12-07T02:02:29.792Z,56.67
2022-12-07T02:04:34.198Z,50.23
2022-12-07T02:06:38.617Z,51.97
2022-12-07T02:08:43.516Z,65.43
2022-12-07T02:10:46.845Z,56.77
2022-12-07T02:12:55.636Z,50.63
2022-12-07T02:14:58.980Z,67.93
2022-12-07T02:17:14.001Z,65.20
2022-12-07T02:19:49.497Z,53.10
2022-12-07T02:22:00.968Z,54.80
2022-12-07T02:24:38.561Z,63.42
2022-12-07T02:27:23.881Z,47.93
2022-12-07T02:29:31.979Z,39.83
2022-12-07T02:31:35.656Z,41.73
2022-12-07T02:33:45.465Z,32.67
2022-12-07T02:35:57.879Z,35.77
2022-12-07T02:38:09.270Z,64.23
2022-12-07T02:40:19.022Z,41.27
2022-12-07T02:42:28.760Z,50.67
2022-12-07T02:44:34.754Z,36.30
2022-12-07T02:46:41.802Z,39.60
2022-12-07T02:48:46.936Z,49.67
2022-12-07T02:50:51.151Z,48.63
2022-12-07T02:52:54.428Z,54.33
2022-12-07T02:54:57.714Z,39.97
2022-12-07T02:57:11.268Z,40.60
2022-12-07T02:59:25.035Z,38.90
2022-12-07T03:01:39.215Z,48.33
2022-12-07T03:03:49.226Z,35.23
2022-12-07T03:06:06.430Z,46.43
2022-12-07T03:08:19.600Z,39.00
2022-12-07T03:10:29.665Z,58.67
2022-12-07T03:12:37.165Z,44.27
2022-12-07T03:14:45.449Z,34.73
2022-12-07T03:16:56.904Z,39.83
2022-12-07T03:19:04.061Z,46.47
2022-12-07T03:21:13.665Z,38.00
2022-12-07T03:23:20.448Z,39.53
2022-12-07T03:25:24.378Z,44.87
2022-12-07T03:27:33.511Z,37.03
2022-12-07T03:29:43.239Z,36.97
2022-12-07T03:31:53.115Z,45.77
2022-12-07T03:34:02.434Z,39.17
2022-12-07T03:36:10.758Z,33.67
2022-12-07T03:38:20.163Z,36.67
2022-12-07T03:40:32.800Z,41.43
2022-12-07T03:42:36.411Z,39.40
2022-12-07T03:44:42.960Z,39.80
2022-12-07T03:46:55.610Z,39.33
2022-12-07T03:49:04.682Z,50.57
2022-12-07T03:51:15.950Z,43.23
2022-12-07T03:53:25.066Z,41.60
2022-12-07T03:55:32.040Z,38.40
2022-12-07T03:57:38.003Z,44.50
2022-12-07T03:59:42.194Z,43.00
2022-12-07T04:01:46.144Z,43.20
2022-12-07T04:03:50.915Z,45.97
2022-12-07T04:05:54.313Z,44.17
2022-12-07T04:07:58.260Z,63.07
2022-12-07T04:10:02.025Z,54.63
2022-12-07T04:12:06.489Z,49.40
2022-12-07T04:14:21.927Z,45.97
2022-12-07T04:16:25.337Z,52.53
2022-12-07T04:18:28.701Z,52.60
2022-12-07T04:20:33.428Z,61.87
2022-12-07T04:22:36.900Z,59.87
2022-12-07T04:24:40.884Z,52.83
2022-12-07T04:26:45.229Z,50.67
2022-12-07T04:28:48.568Z,47.37
2022-12-07T04:30:51.944Z,47.80
2022-12-07T04:32:55.262Z,45.30
2022-12-07T04:34:59.756Z,47.87
2022-12-07T04:37:04.396Z,41.00
2022-12-07T04:39:09.461Z,47.10
2022-12-07T04:41:12.735Z,50.03
2022-12-07T04:43:16.044Z,49.77
2022-12-07T04:45:19.394Z,45.78
2022-12-07T04:47:22.773Z,47.53
2022-12-07T04:49:26.961Z,59.47
2022-12-07T04:51:31.310Z,57.93
2022-12-07T04:53:35.963Z,45.63
2022-12-07T04:55:39.308Z,65.97
2022-12-07T04:57:42.615Z,63.85
2022-12-07T04:59:46.221Z,44.00
2022-12-07T05:01:49.733Z,65.17
2022-12-07T05:03:53.160Z,63.67
2022-12-07T05:05:56.471Z,59.60
2022-12-07T05:07:59.867Z,92.80
2022-12-07T05:10:05.453Z,83.03
2022-12-07T05:12:08.841Z,53.60
2022-12-07T05:14:15.520Z,45.70
2022-12-07T05:16:19.404Z,81.57
2022-12-07T05:18:22.884Z,76.07
2022-12-07T05:20:26.423Z,64.10
2022-12-07T05:22:30.062Z,63.42
2022-12-07T05:24:33.554Z,82.60
2022-12-07T05:26:38.556Z,87.23
2022-12-07T05:28:42.053Z,74.20
2022-12-07T05:30:45.669Z,91.47
2022-12-07T05:32:49.231Z,80.95
2022-12-07T05:34:52.719Z,96.30
2022-12-07T05:36:56.280Z,89.70
2022-12-07T05:39:00.090Z,65.77
2022-12-07T05:41:04.520Z,78.07
2022-12-07T05:43:09.438Z,60.90
2022-12-07T05:45:12.881Z,78.13
2022-12-07T05:47:17.500Z,75.10
2022-12-07T05:49:21.202Z,71.28
2022-12-07T05:51:24.809Z,83.03
2022-12-07T05:53:28.255Z,76.53
2022-12-07T05:55:31.863Z,86.80
2022-12-07T05:57:35.469Z,93.27
2022-12-07T05:59:39.186Z,99.10
2022-12-07T06:01:42.580Z,86.53
2022-12-07T06:03:46.418Z,88.37
2022-12-07T06:05:49.795Z,77.07
2022-12-07T06:07:53.164Z,80.30
2022-12-07T06:09:56.489Z,71.13
2022-12-07T06:12:18.093Z,71.43
2022-12-07T06:14:21.412Z,87.40
2022-12-07T06:16:26.236Z,94.60
2022-12-07T06:18:29.586Z,64.00
2022-12-07T06:20:33.031Z,90.07
2022-12-07T06:22:36.336Z,90.40
2022-12-07T06:24:40.448Z,72.63
2022-12-07T06:26:44.720Z,78.50
2022-12-07T06:28:48.159Z,66.87
2022-12-07T06:30:59.211Z,51.20
2022-12-07T06:33:03.908Z,55.17
2022-12-07T06:35:07.857Z,46.50
2022-12-07T06:37:11.157Z,65.43
2022-12-07T06:39:14.468Z,51.00
2022-12-07T06:41:19.092Z,66.37
2022-12-07T06:43:22.902Z,57.57
2022-12-07T06:45:26.240Z,45.37
2022-12-07T06:47:40.508Z,47.27
2022-12-07T06:49:45.602Z,33.53
2022-12-07T06:51:49.042Z,43.63
2022-12-07T06:53:53.782Z,60.77
2022-12-07T06:55:57.186Z,52.78
2022-12-07T06:58:00.521Z,51.70
2022-12-07T07:00:05.791Z,62.87
2022-12-07T07:02:10.755Z,49.43
2022-12-07T07:04:14.151Z,52.83
2022-12-07T07:06:18.865Z,54.80
2022-12-07T07:08:23.085Z,60.43
2022-12-07T07:10:27.023Z,65.37
2022-12-07T07:12:30.393Z,59.87
2022-12-07T07:14:33.938Z,58.93
2022-12-07T07:16:37.268Z,47.83
2022-12-07T07:18:40.648Z,44.73
2022-12-07T07:20:44.073Z,61.37
2022-12-07T07:22:48.741Z,59.97
2022-12-07T07:24:52.027Z,68.67
2022-12-07T07:26:55.908Z,62.27
2022-12-07T07:28:59.275Z,60.73
2022-12-07T07:31:02.744Z,51.87
2022-12-07T07:33:07.271Z,65.07
2022-12-07T07:35:10.723Z,106.60
2022-12-07T07:37:18.707Z,74.33
2022-12-07T07:39:26.489Z,84.80
2022-12-07T07:41:29.974Z,76.00
2022-12-07T07:43:34.493Z,68.30
2022-12-07T07:45:38.357Z,95.33
2022-12-07T07:47:42.623Z,103.00
2022-12-07T07:49:48.292Z,86.73
2022-12-07T07:51:51.963Z,96.40
2022-12-07T07:53:55.725Z,124.93
2022-12-07T07:56:00.413Z,108.03
2022-12-07T07:58:03.736Z,119.22
2022-12-07T08:00:09.503Z,90.87
2022-12-07T08:02:17.478Z,154.40
2022-12-07T08:04:20.819Z,96.17
2022-12-07T08:06:29.037Z,172.63
2022-12-07T08:08:35.240Z,86.57
2022-12-07T08:10:38.651Z,86.90
2022-12-07T08:13:03.120Z,135.95
2022-12-07T08:15:07.435Z,92.18
2022-12-07T08:17:10.769Z,103.77
2022-12-07T08:19:14.136Z,194.40
2022-12-07T08:21:17.946Z,214.07
2022-12-07T08:23:24.326Z,100.50
2022-12-07T08:25:34.231Z,174.10
2022-12-07T08:27:37.670Z,126.83
2022-12-07T08:29:42.420Z,209.75
2022-12-07T08:31:45.739Z,130.02
2022-12-07T08:33:49.756Z,205.05
2022-12-07T08:35:53.040Z,122.07
2022-12-07T08:37:58.264Z,106.17
2022-12-07T08:40:02.047Z,102.23
2022-12-07T08:42:06.048Z,109.23
2022-12-07T08:44:09.404Z,108.20
2022-12-07T08:46:21.101Z,105.43
2022-12-07T08:48:25.826Z,95.13
2022-12-07T08:50:29.676Z,113.47
2022-12-07T08:52:33.870Z,116.35
2022-12-07T08:54:40.739Z,102.23
2022-12-07T08:56:44.914Z,209.82
2022-12-07T08:58:48.291Z,188.48
2022-12-07T09:00:51.806Z,229.55
2022-12-07T09:02:56.670Z,179.25
2022-12-07T09:05:01.593Z,228.05
2022-12-07T09:07:05.238Z,242.55
2022-12-07T09:09:10.199Z,107.67
2022-12-07T09:11:13.640Z,97.93
2022-12-07T09:13:17.152Z,110.37
2022-12-07T09:15:20.449Z,107.67
2022-12-07T09:17:24.230Z,109.67
2022-12-07T09:19:29.142Z,112.07
2022-12-07T09:21:32.659Z,120.73
2022-12-07T09:23:35.974Z,225.48
2022-12-07T09:25:40.129Z,241.90
2022-12-07T09:27:43.838Z,230.27
2022-12-07T09:29:47.155Z,214.88
2022-12-07T09:31:50.567Z,181.93
2022-12-07T09:33:57.345Z,242.77
2022-12-07T09:36:02.090Z,254.70
2022-12-07T09:38:05.422Z,241.85
2022-12-07T09:40:09.745Z,236.02
2022-12-07T09:42:28.883Z,221.50
2022-12-07T09:44:34.652Z,251.88
2022-12-07T09:46:41.068Z,240.05
2022-12-07T09:48:45.837Z,156.47
2022-12-07T09:50:50.396Z,177.80
2022-12-07T09:52:58.093Z,228.93
2022-12-07T09:55:01.668Z,243.88
2022-12-07T09:57:05.480Z,215.52
2022-12-07T09:59:15.459Z,259.10
2022-12-07T10:01:21.736Z,237.05
2022-12-07T10:03:25.434Z,242.30
2022-12-07T10:05:32.528Z,234.95
2022-12-07T10:07:36.028Z,247.77
2022-12-07T10:09:40.774Z,229.77
2022-12-07T10:12:07.338Z,261.08
2022-12-07T10:14:15.225Z,250.05
2022-12-07T10:16:43.460Z,238.00
2022-12-07T10:18:46.818Z,235.40
2022-12-07T10:20:50.511Z,234.57
2022-12-07T10:22:59.075Z,241.38
2022-12-07T10:25:11.159Z,242.37
2022-12-07T10:27:21.769Z,234.03
2022-12-07T10:29:32.039Z,252.75
2022-12-07T10:31:40.957Z,248.77
2022-12-07T10:33:52.083Z,242.30
2022-12-07T10:35:55.574Z,229.32
2022-12-07T10:38:01.457Z,235.15
2022-12-07T10:40:27.765Z,197.77
2022-12-07T10:42:32.739Z,227.90
2022-12-07T10:44:36.703Z,200.13
2022-12-07T10:46:49.343Z,218.67
2022-12-07T10:49:05.988Z,228.27
2022-12-07T10:51:17.889Z,245.52
2022-12-07T10:53:35.502Z,217.20
2022-12-07T10:55:57.241Z,236.00
2022-12-07T10:58:22.437Z,189.40
2022-12-07T11:00:26.848Z,249.90
2022-12-07T11:02:47.823Z,241.10
2022-12-07T11:05:01.788Z,210.27
2022-12-07T11:07:13.569Z,238.27
2022-12-07T11:10:07.957Z,241.48
2022-12-07T11:12:15.627Z,212.63
2022-12-07T11:14:27.197Z,227.93
2022-12-07T11:16:41.348Z,237.05
2022-12-07T11:18:54.766Z,211.63
2022-12-07T11:21:06.360Z,226.07
2022-12-07T11:23:20.400Z,225.30
2022-12-07T11:25:33.293Z,193.23
2022-12-07T11:27:43.349Z,264.00
2022-12-07T11:29:58.068Z,349.63
2022-12-07T11:32:14.317Z,321.70
2022-12-07T11:34:27.170Z,281.65
2022-12-07T11:36:39.737Z,274.08
2022-12-07T11:38:48.322Z,339.50
2022-12-07T11:40:55.423Z,286.13
2022-12-07T11:43:06.339Z,268.33
2022-12-07T11:45:16.785Z,332.38
2022-12-07T11:47:27.511Z,330.35
2022-12-07T11:49:43.041Z,289.13
2022-12-07T11:51:51.108Z,272.63
2022-12-07T11:53:58.939Z,329.48
2022-12-07T11:56:06.223Z,429.98
2022-12-07T11:58:24.386Z,335.52
2022-12-07T12:00:28.057Z,298.13
2022-12-07T12:02:38.877Z,267.40
2022-12-07T12:04:53.051Z,245.98
2022-12-07T12:06:56.673Z,241.83
2022-12-07T12:11:45.896Z,199.07
2022-12-07T12:14:36.900Z,244.20
2022-12-07T12:17:00.449Z,326.23
2022-12-07T12:19:20.162Z,299.23
2022-12-07T12:21:29.731Z,258.58
2022-12-07T12:23:42.511Z,267.37
2022-12-07T12:25:48.836Z,433.30
2022-12-07T12:27:54.074Z,316.17
2022-12-07T12:30:01.185Z,259.07
2022-12-07T12:32:15.736Z,248.85
2022-12-07T12:34:34.736Z,273.60
2022-12-07T12:36:49.297Z,216.23
2022-12-07T12:39:09.440Z,212.30
2022-12-07T12:42:09.892Z,224.63
2022-12-07T12:44:41.809Z,234.47
2022-12-07T12:46:54.580Z,229.07
2022-12-07T12:49:46.333Z,254.00
2022-12-07T12:51:50.873Z,236.97
2022-12-07T12:53:54.300Z,249.40
2022-12-07T12:56:31.966Z,220.30
2022-12-07T12:58:44.471Z,231.23
2022-12-07T13:00:48.535Z,258.50
2022-12-07T13:02:54.325Z,254.97
2022-12-07T13:05:01.747Z,248.33
2022-12-07T13:07:05.615Z,259.60
2022-12-07T13:09:23.699Z,253.77
2022-12-07T13:11:31.929Z,258.97
2022-12-07T13:13:37.364Z,276.87
2022-12-07T13:15:43.382Z,266.23
2022-12-07T13:18:24.020Z,253.33
2022-12-07T13:20:52.568Z,272.77
2022-12-07T13:23:01.205Z,247.60
2022-12-07T13:25:10.872Z,218.87
2022-12-07T13:27:15.024Z,222.30
2022-12-07T13:29:21.054Z,209.77
2022-12-07T13:31:33.640Z,225.07
2022-12-07T13:33:37.772Z,222.47
2022-12-07T13:35:41.074Z,176.93
2022-12-07T13:37:46.379Z,177.97
2022-12-07T13:39:52.828Z,180.33
2022-12-07T13:41:57.985Z,182.87
2022-12-07T13:44:05.416Z,169.30
2022-12-07T13:46:10.293Z,169.07
2022-12-07T13:48:18.049Z,176.87
2022-12-07T13:50:26.958Z,178.17
2022-12-07T13:52:31.672Z,179.27
2022-12-07T13:54:46.281Z,188.00
2022-12-07T13:56:53.176Z,173.97
2022-12-07T13:58:57.255Z,176.37
2022-12-07T14:01:01.550Z,234.30
2022-12-07T14:03:31.175Z,193.13
2022-12-07T14:05:36.603Z,251.07
2022-12-07T14:07:51.466Z,225.33
2022-12-07T14:10:00.094Z,233.17
2022-12-07T14:12:08.547Z,264.77
2022-12-07T14:14:17.906Z,228.70
2022-12-07T14:16:28.598Z,228.03
2022-12-07T14:18:40.459Z,274.55
2022-12-07T14:20:43.998Z,225.93
2022-12-07T14:22:57.177Z,217.73
2022-12-07T14:25:03.228Z,279.15
2022-12-07T14:27:19.331Z,224.48
2022-12-07T14:29:34.689Z,309.05
2022-12-07T14:31:38.084Z,211.20
2022-12-07T14:33:43.922Z,196.97
2022-12-07T14:35:47.230Z,278.00
2022-12-07T14:37:51.744Z,230.63
2022-12-07T14:39:55.039Z,274.20
2022-12-07T14:41:58.401Z,249.40
2022-12-07T14:44:22.348Z,275.50
2022-12-07T14:46:25.368Z,255.70
2022-12-07T14:55:29.419Z,256.05
2022-12-07T14:57:32.737Z,231.80
2022-12-07T14:59:39.191Z,206.43
2022-12-07T15:01:45.166Z,158.40
2022-12-07T15:03:48.630Z,160.23
2022-12-07T15:05:51.980Z,166.80
2022-12-07T15:07:56.922Z,231.23
2022-12-07T15:10:00.266Z,289.50
2022-12-07T15:12:04.652Z,277.58
2022-12-07T15:14:12.245Z,261.90
2022-12-07T15:16:21.414Z,224.52
2022-12-07T15:18:26.263Z,264.30
2022-12-07T15:20:29.589Z,275.38
2022-12-07T15:22:38.206Z,254.03
2022-12-07T15:24:43.492Z,293.92
2022-12-07T15:26:48.007Z,274.13
2022-12-07T15:28:51.492Z,276.17
2022-12-07T15:30:54.803Z,264.50
2022-12-07T15:32:58.146Z,275.40
2022-12-07T15:35:02.158Z,288.85
2022-12-07T15:37:05.858Z,269.52
2022-12-07T15:39:14.693Z,291.40
2022-12-07T15:41:20.222Z,274.13
2022-12-07T15:43:41.417Z,289.63
2022-12-07T15:45:44.722Z,146.20
2022-12-07T15:48:26.845Z,274.15
2022-12-07T15:50:14.400Z,267.77
2022-12-07T15:52:17.902Z,163.55
2022-12-07T15:54:23.642Z,159.60
2022-12-07T15:56:28.343Z,224.37
2022-12-07T15:58:33.163Z,159.70
2022-12-07T16:00:36.572Z,192.90
2022-12-07T16:02:40.376Z,127.07
2022-12-07T16:04:43.842Z,175.63
2022-12-07T16:06:47.455Z,203.10
2022-12-07T16:08:50.834Z,241.63
2022-12-07T16:10:54.181Z,274.40
2022-12-07T16:12:58.989Z,268.00
2022-12-07T16:15:02.703Z,248.95
2022-12-07T16:17:06.737Z,258.70
2022-12-07T16:19:10.279Z,251.05
2022-12-07T16:21:13.877Z,284.10
2022-12-07T16:23:17.780Z,371.50
2022-12-07T16:25:21.187Z,373.63
2022-12-07T16:27:24.501Z,331.00
2022-12-07T16:29:29.275Z,298.02
2022-12-07T16:31:32.798Z,296.60
2022-12-07T16:33:36.497Z,254.55
2022-12-07T16:35:41.804Z,262.67
2022-12-07T16:37:45.352Z,257.70
2022-12-07T16:39:48.689Z,254.68
2022-12-07T16:41:53.740Z,257.45
2022-12-07T16:43:57.059Z,255.57
2022-12-07T16:46:01.954Z,269.52
2022-12-07T16:48:05.915Z,252.25
2022-12-07T16:50:09.908Z,257.70
2022-12-07T16:52:21.444Z,262.40
2022-12-07T16:54:24.963Z,290.42
2022-12-07T16:56:30.005Z,290.33
2022-12-07T16:58:33.951Z,303.05
2022-12-07T17:00:38.400Z,308.00
2022-12-07T17:02:43.164Z,288.83
2022-12-07T17:04:46.443Z,281.63
2022-12-07T17:06:49.725Z,270.20
2022-12-07T17:08:53.944Z,279.10
2022-12-07T17:10:57.338Z,265.23
2022-12-07T17:13:00.660Z,272.73
2022-12-07T17:15:18.803Z,285.58
2022-12-07T17:17:22.185Z,291.45
2022-12-07T17:19:26.852Z,300.45
2022-12-07T17:21:30.362Z,295.45
2022-12-07T17:23:35.128Z,297.83
2022-12-07T17:25:38.443Z,276.48
2022-12-07T17:27:42.250Z,283.92
2022-12-07T17:29:45.561Z,297.50
2022-12-07T17:31:51.950Z,333.50
2022-12-07T17:33:55.592Z,351.45
2022-12-07T17:36:00.243Z,316.85
2022-12-07T17:38:03.655Z,257.02
2022-12-07T17:40:08.155Z,314.88
2022-12-07T17:42:29.153Z,299.88
2022-12-07T17:44:32.961Z,258.55
2022-12-07T17:46:36.284Z,271.13
2022-12-07T17:48:39.691Z,312.13
2022-12-07T17:51:00.521Z,311.02
2022-12-07T17:53:14.088Z,304.73
2022-12-07T17:55:17.759Z,295.45
2022-12-07T17:57:21.039Z,304.65
2022-12-07T17:59:24.536Z,304.02
2022-12-07T18:01:34.210Z,314.67
2022-12-07T18:03:37.959Z,299.13
2022-12-07T18:05:45.070Z,297.73
2022-12-07T18:07:48.714Z,284.83
2022-12-07T18:09:53.570Z,291.92
2022-12-07T18:11:56.905Z,308.67
2022-12-07T18:14:00.388Z,292.85
2022-12-07T18:16:05.116Z,303.30
2022-12-07T18:18:08.630Z,298.27
2022-12-07T18:20:12.947Z,299.95
2022-12-07T18:22:16.441Z,298.17
2022-12-07T18:24:19.906Z,295.73
2022-12-07T18:26:26.827Z,289.25
2022-12-07T18:28:31.097Z,239.35
2022-12-07T18:31:06.508Z,242.95
2022-12-07T18:32:58.513Z,248.55
2022-12-07T18:35:02.313Z,257.00
2022-12-07T18:37:05.941Z,313.77
2022-12-07T18:39:10.149Z,284.15
2022-12-07T18:41:15.603Z,307.27
2022-12-07T18:43:20.332Z,343.52
2022-12-07T18:45:23.670Z,311.00
2022-12-07T18:47:27.122Z,312.25
2022-12-07T18:49:30.958Z,316.25
2022-12-07T18:51:34.316Z,315.55
2022-12-07T18:53:38.348Z,327.25
2022-12-07T18:55:41.677Z,318.73
2022-12-07T18:57:45.067Z,318.95
2022-12-07T18:59:49.600Z,324.30
2022-12-07T19:01:54.821Z,306.40
2022-12-07T19:03:58.533Z,306.45
2022-12-07T19:06:07.233Z,312.23
2022-12-07T19:08:10.681Z,309.13
2022-12-07T19:10:15.364Z,308.02
2022-12-07T19:12:18.773Z,303.77
2022-12-07T19:14:25.110Z,317.60
2022-12-07T19:16:29.859Z,310.05
2022-12-07T19:18:33.733Z,320.30
2022-12-07T19:20:37.119Z,314.90
2022-12-07T19:22:40.765Z,302.75
2022-12-07T19:24:46.403Z,314.35
2022-12-07T19:26:49.788Z,310.08
2022-12-07T19:28:53.135Z,314.35
2022-12-07T19:30:56.457Z,300.83
2022-12-07T19:33:01.143Z,318.80
2022-12-07T19:35:05.552Z,300.05
2022-12-07T19:37:11.393Z,299.30
2022-12-07T19:39:15.866Z,304.27
2022-12-07T19:41:39.199Z,313.65
2022-12-07T19:43:42.545Z,311.63
2022-12-07T19:45:45.948Z,325.65
2022-12-07T19:47:49.441Z,304.77
2022-12-07T19:49:54.498Z,285.30
2022-12-07T19:52:00.595Z,307.77
2022-12-07T19:54:04.177Z,292.30
2022-12-07T19:56:08.528Z,285.88
2022-12-07T19:58:11.882Z,306.55
2022-12-07T20:00:16.017Z,287.35
2022-12-07T20:02:19.411Z,301.83
2022-12-07T20:04:24.829Z,308.60
2022-12-07T20:06:29.516Z,301.13
2022-12-07T20:08:32.851Z,298.42
2022-12-07T20:10:39.738Z,307.17
2022-12-07T20:13:00.691Z,275.92
2022-12-07T20:15:04.484Z,297.73
2022-12-07T20:17:08.189Z,288.73
2022-12-07T20:19:11.845Z,311.55
2022-12-07T20:21:15.436Z,314.70
2022-12-07T20:23:20.146Z,299.40
2022-12-07T20:25:23.482Z,304.92
2022-12-07T20:27:26.824Z,288.63
2022-12-07T20:29:30.227Z,289.50
2022-12-07T20:31:33.656Z,253.63
2022-12-07T20:33:37.083Z,243.35
2022-12-07T20:35:40.481Z,260.05
2022-12-07T20:37:43.820Z,234.93
2022-12-07T20:39:48.582Z,171.43
2022-12-07T20:42:09.625Z,203.57
2022-12-07T20:44:14.286Z,240.30
2022-12-07T20:46:17.758Z,221.07
2022-12-07T20:48:21.587Z,211.15
2022-12-07T20:50:25.227Z,206.90
2022-12-07T20:52:28.675Z,204.90
2022-12-07T20:54:32.130Z,214.85
2022-12-07T20:56:37.244Z,224.25
2022-12-07T20:58:40.590Z,161.77
2022-12-07T21:00:43.930Z,212.27
2022-12-07T21:02:47.293Z,197.38
2022-12-07T21:04:50.639Z,231.02
2022-12-07T21:06:54.117Z,255.77
2022-12-07T21:08:59.424Z,261.30
2022-12-07T21:11:08.548Z,272.92
2022-12-07T21:13:13.222Z,265.13
2022-12-07T21:15:16.572Z,281.23
2022-12-07T21:17:19.913Z,260.23
2022-12-07T21:19:24.883Z,272.05
2022-12-07T21:21:28.213Z,267.63
2022-12-07T21:23:31.691Z,267.00
2022-12-07T21:25:35.050Z,278.45
2022-12-07T21:27:38.403Z,288.60
2022-12-07T21:29:44.589Z,280.20
2022-12-07T21:31:48.631Z,273.75
2022-12-07T21:33:52.212Z,272.30
2022-12-07T21:35:55.569Z,274.02
2022-12-07T21:37:58.846Z,281.17
2022-12-07T21:40:02.188Z,273.30
2022-12-07T21:42:05.815Z,275.98
2022-12-07T21:44:10.524Z,281.25
2022-12-07T21:46:16.163Z,274.55
2022-12-07T21:48:20.923Z,283.17
2022-12-07T21:50:24.389Z,284.90
2022-12-07T21:52:27.725Z,269.17
2022-12-07T21:54:31.198Z,258.73
2022-12-07T21:56:36.978Z,286.95
2022-12-07T21:58:40.305Z,290.45
2022-12-07T22:00:43.677Z,296.55
2022-12-07T22:02:48.348Z,282.83
2022-12-07T22:04:51.719Z,309.10
2022-12-07T22:06:56.906Z,287.33
2022-12-07T22:09:00.476Z,294.38
2022-12-07T22:11:03.840Z,221.57
2022-12-07T22:13:07.162Z,190.85
2022-12-07T22:15:10.363Z,194.07
2022-12-07T22:17:13.870Z,242.63
2022-12-07T22:19:18.901Z,233.20
2022-12-07T22:21:22.711Z,233.98
2022-12-07T22:23:26.160Z,240.35
2022-12-07T22:25:29.540Z,249.30
2022-12-07T22:27:33.662Z,259.85
2022-12-07T22:29:37.050Z,246.60
2022-12-07T22:31:41.950Z,246.05
2022-12-07T22:33:45.703Z,225.48
2022-12-07T22:35:54.650Z,242.50
2022-12-07T22:37:57.987Z,298.80
2022-12-07T22:40:01.478Z,272.67
2022-12-07T22:42:04.939Z,265.88
2022-12-07T22:44:08.871Z,247.30
2022-12-07T22:46:12.267Z,231.40
2022-12-07T22:48:15.897Z,252.75
2022-12-07T22:50:19.259Z,256.58
2022-12-07T22:52:23.896Z,253.25
2022-12-07T22:54:27.225Z,267.85
2022-12-07T22:56:33.437Z,274.05
2022-12-07T22:58:36.737Z,287.95
2022-12-07T23:00:40.125Z,277.58
2022-12-07T23:02:43.514Z,282.55
2022-12-07T23:04:46.888Z,284.00
2022-12-07T23:06:50.221Z,278.55
2022-12-07T23:08:57.638Z,290.50
2022-12-07T23:11:00.957Z,288.95
2022-12-07T23:13:21.961Z,296.48
2022-12-07T23:15:25.320Z,287.83
2022-12-07T23:17:28.808Z,287.73
2022-12-07T23:19:32.285Z,302.65
2022-12-07T23:21:36.122Z,318.17
2022-12-07T23:23:39.507Z,318.33
2022-12-07T23:25:44.133Z,313.80
2022-12-07T23:27:47.470Z,313.48
2022-12-07T23:29:50.903Z,306.77
2022-12-07T23:31:54.281Z,308.23
2022-12-07T23:33:57.699Z,288.05
2022-12-07T23:36:08.646Z,301.48
2022-12-07T23:38:12.014Z,274.77
2022-12-07T23:40:15.373Z,273.05
2022-12-07T23:42:20.148Z,278.20
2022-12-07T23:44:23.602Z,280.58
2022-12-07T23:46:29.093Z,300.92
2022-12-07T23:48:32.543Z,267.13
2022-12-07T23:50:35.870Z,246.52
2022-12-07T23:52:39.204Z,257.92
2022-12-07T23:54:42.513Z,316.90
2022-12-07T23:56:45.862Z,304.10
2022-12-07T23:58:51.776Z,250.68
